Avon, NC

4:44 AM EDT on October 25, 2014 (GMT -0400)
KNCBUXTO2 | Change Station
CLOSE
Current Station
Personal Weather Station
Location: Buxton, NC
Elevation: 42 ft
Nearby Weather Stations

Elev 42 ft 35.26 °N, 75.53 °W | Updated 5 minutes ago

Clear
Clear
54.9 °F
Feels Like 54.9 °F
N
0.0
Wind Variable Wind from NNW

Today
High -- | Low -- °F
--% Chance of Precip.
Yesterday
High -- | Low -- °F
Precip. -- in
7:16 AM 6:14 PM
New Moon, 2% visible
Pressure 29.94 in
Visibility 10.0 miles
Clouds Clear
Dew Point 53 °F
Humidity 94%
Rainfall 0.00 in
Snow Depth Not available.
UV 0 out of 12
Pollen 1.30 out of 12
Air Quality Not available.
Flu Activity Local Activity
METAR KHSE 250751Z AUTO 34003KT 10SM CLR 10/10 A2994 RMK AO2 SLP138 T01000100 TSNO

More Conditions Fewer Conditions

Pressure 29.94 in
Visibility 10.0 miles
Clouds Clear
Dew Point 53 °F
Humidity 94%
Rainfall 0.00 in
Snow Depth Not available.
UV 0 out of 12
Pollen 1.30 out of 12
Air Quality Not available.
Flu Activity Local Activity
METAR KHSE 250751Z AUTO 34003KT 10SM CLR 10/10 A2994 RMK AO2 SLP138 T01000100 TSNO

More Conditions Fewer Conditions

10-Day Weather Forecast

Almanac

Astronomy

Oct. 25, 2014 Rise Set
Actual Time 7:16 AM EDT 6:14 PM EDT
Civil Twilight 6:51 AM EDT 6:40 PM EDT
Nautical Twilight 6:21 AM EDT 7:10 PM EDT
Astronomical Twilight 5:51 AM EDT 7:39 PM EDT
Moon 8:50 AM EDT 7:38 PM EDT
Length of Visible Light 11h 49m
Length of Day
10h 57m
Tomorrow will be 2m 2s shorter.
New Moon, 2% of the Moon is Illuminated
Today
New Moon
Oct 30
First Quarter
Nov 6
Full
Nov 14
Last Quarter
Nov 22
New

Today's Extremes

State Highs State Lows

Community

WunderPhotos

Upload Photos

1,764,791 photos uploaded!

Nearby

Snow Depth

Station Depth Elevation
No new snow has been reported.

Earthquake Activity

City Distance Mag. Time & Date
No recent earthquake activity has been reported nearby.
Minimum magnitude displayed is 2.5.

Coastal Water Temperatures

Place Temperature
Oregon Inlet Marina, NC 64.0 °F
Hatteras, NC 64.9 °F
Duck Pier, NC 64.9 °F
Money Point, VA 64.9 °F
Beaufort, NC 66.9 °F
Sewells Point, VA 63.0 °F
Chesapeake Bay Bridge Tunnel, VA 64.0 °F

Nearby Weather Stations